Talbot, Indiana
Current Conditions -  °F | °C
As of 10:55 PM on Sunday 23 Nov 2014 (Local Time) from KDNV Reporting Station
Moderate Rain Moderate Rain  
Wind Chill: 51°   Ceiling: 300
Heat Index: 51°   Visibility: 4mi
Dew Point: 51°   Wind: 5mph
Humidity: 99%   Direction: 190°S
Pressure: 29.15"   Gusts: NA
Location:  40.51°N, 87.45°W
Report Text: KDNV 240355Z AUTO 19004KT 4SM RA OVC003 11/10 A2915 RMK AO2 P0002 T01050104
Loading
Personal Weather Stations






























Interactive Weather Map New forecast layout! Learn more

10-Day Weather Forecast

Advertisements
Track Severe Weather on mobile